sensor_id;sensor_type;location;lat;lon;timestamp;pressure;altitude;pressure_sealevel;temperature;humidity
61318;BME280;47201;40.428;-8.436;2023-07-09T00:01:40;101126.53;;;17.10;100.00
61318;BME280;47201;40.428;-8.436;2023-07-09T00:03:40;101127.28;;;17.15;100.00
61318;BME280;47201;40.428;-8.436;2023-07-09T00:05:42;101118.38;;;17.21;100.00
61318;BME280;47201;40.428;-8.436;2023-07-09T00:07:44;101121.75;;;17.27;100.00
61318;BME280;47201;40.428;-8.436;2023-07-09T00:09:45;101126.94;;;17.31;100.00
61318;BME280;47201;40.428;-8.436;2023-07-09T00:11:47;101126.78;;;17.38;100.00
61318;BME280;47201;40.428;-8.436;2023-07-09T00:13:48;101127.59;;;17.40;100.00
61318;BME280;47201;40.428;-8.436;2023-07-09T00:15:49;101123.06;;;17.47;100.00
61318;BME280;47201;40.428;-8.436;2023-07-09T00:17:50;101130.97;;;17.47;100.00
61318;BME280;47201;40.428;-8.436;2023-07-09T00:19:51;101127.44;;;17.47;100.00
61318;BME280;47201;40.428;-8.436;2023-07-09T00:21:52;101133.63;;;17.47;100.00
61318;BME280;47201;40.428;-8.436;2023-07-09T00:23:53;101132.88;;;17.42;100.00
61318;BME280;47201;40.428;-8.436;2023-07-09T00:25:54;101127.84;;;17.31;100.00
61318;BME280;47201;40.428;-8.436;2023-07-09T00:27:54;101129.56;;;17.32;100.00
61318;BME280;47201;40.428;-8.436;2023-07-09T00:29:55;101128.84;;;17.25;100.00
61318;BME280;47201;40.428;-8.436;2023-07-09T00:31:56;101133.28;;;17.23;100.00
61318;BME280;47201;40.428;-8.436;2023-07-09T00:33:56;101128.78;;;17.27;100.00
61318;BME280;47201;40.428;-8.436;2023-07-09T00:36:01;101128.78;;;17.27;100.00
61318;BME280;47201;40.428;-8.436;2023-07-09T00:38:02;101124.28;;;17.32;100.00
61318;BME280;47201;40.428;-8.436;2023-07-09T00:40:04;101132.88;;;17.42;100.00
61318;BME280;47201;40.428;-8.436;2023-07-09T00:42:06;101130.09;;;17.47;100.00
61318;BME280;47201;40.428;-8.436;2023-07-09T00:48:25;101132.53;;;17.56;100.00
61318;BME280;47201;40.428;-8.436;2023-07-09T00:50:34;101138.56;;;17.63;100.00
61318;BME280;47201;40.428;-8.436;2023-07-09T00:52:52;101141.03;;;17.69;100.00
61318;BME280;47201;40.428;-8.436;2023-07-09T00:54:55;101147.13;;;17.72;100.00
61318;BME280;47201;40.428;-8.436;2023-07-09T00:57:04;101133.78;;;17.77;100.00
61318;BME280;47201;40.428;-8.436;2023-07-09T00:59:10;101138.13;;;17.80;100.00
61318;BME280;47201;40.428;-8.436;2023-07-09T01:01:16;101149.66;;;17.77;100.00
61318;BME280;47201;40.428;-8.436;2023-07-09T01:05:30;101154.56;;;17.56;100.00
61318;BME280;47201;40.428;-8.436;2023-07-09T01:07:34;101155.66;;;17.46;100.00
61318;BME280;47201;40.428;-8.436;2023-07-09T01:09:35;101154.03;;;17.42;100.00
61318;BME280;47201;40.428;-8.436;2023-07-09T01:11:41;101153.22;;;17.37;100.00
61318;BME280;47201;40.428;-8.436;2023-07-09T01:13:41;101151.56;;;17.33;100.00
61318;BME280;47201;40.428;-8.436;2023-07-09T01:15:46;101153.47;;;17.27;100.00
61318;BME280;47201;40.428;-8.436;2023-07-09T01:17:47;101150.22;;;17.15;100.00
61318;BME280;47201;40.428;-8.436;2023-07-09T01:19:50;101154.69;;;17.11;100.00
61318;BME280;47201;40.428;-8.436;2023-07-09T01:22:15;101161.81;;;17.07;100.00
61318;BME280;47201;40.428;-8.436;2023-07-09T01:26:49;101154.19;;;16.90;100.00
61318;BME280;47201;40.428;-8.436;2023-07-09T01:28:54;101154.19;;;16.92;100.00
61318;BME280;47201;40.428;-8.436;2023-07-09T01:30:55;101149.03;;;16.86;100.00
61318;BME280;47201;40.428;-8.436;2023-07-09T01:32:58;101153.50;;;16.82;100.00
61318;BME280;47201;40.428;-8.436;2023-07-09T01:35:02;101155.44;;;16.74;100.00
61318;BME280;47201;40.428;-8.436;2023-07-09T01:37:06;101150.16;;;16.72;100.00
61318;BME280;47201;40.428;-8.436;2023-07-09T01:39:07;101149.25;;;16.73;100.00
61318;BME280;47201;40.428;-8.436;2023-07-09T01:41:11;101146.53;;;16.78;100.00
61318;BME280;47201;40.428;-8.436;2023-07-09T01:43:14;101145.69;;;16.77;100.00
61318;BME280;47201;40.428;-8.436;2023-07-09T01:45:15;101150.03;;;16.80;100.00
61318;BME280;47201;40.428;-8.436;2023-07-09T01:47:17;101152.59;;;16.83;100.00
61318;BME280;47201;40.428;-8.436;2023-07-09T01:49:18;101156.16;;;16.80;100.00
61318;BME280;47201;40.428;-8.436;2023-07-09T01:51:21;101163.13;;;16.85;100.00
61318;BME280;47201;40.428;-8.436;2023-07-09T01:53:26;101152.47;;;16.89;100.00
61318;BME280;47201;40.428;-8.436;2023-07-09T01:55:27;101151.50;;;16.96;100.00
61318;BME280;47201;40.428;-8.436;2023-07-09T01:57:29;101158.53;;;16.96;100.00
61318;BME280;47201;40.428;-8.436;2023-07-09T01:59:36;101154.28;;;16.87;100.00
61318;BME280;47201;40.428;-8.436;2023-07-09T02:01:41;101159.66;;;16.83;100.00
61318;BME280;47201;40.428;-8.436;2023-07-09T02:03:42;101157.00;;;16.83;100.00
61318;BME280;47201;40.428;-8.436;2023-07-09T02:05:44;101150.88;;;16.82;100.00
61318;BME280;47201;40.428;-8.436;2023-07-09T02:07:46;101162.19;;;16.87;100.00
61318;BME280;47201;40.428;-8.436;2023-07-09T02:09:48;101160.31;;;16.95;100.00
61318;BME280;47201;40.428;-8.436;2023-07-09T02:11:49;101160.22;;;16.99;100.00
61318;BME280;47201;40.428;-8.436;2023-07-09T02:13:49;101159.31;;;17.00;100.00
61318;BME280;47201;40.428;-8.436;2023-07-09T02:15:50;101154.88;;;17.02;100.00
61318;BME280;47201;40.428;-8.436;2023-07-09T02:17:51;101150.50;;;17.01;100.00
61318;BME280;47201;40.428;-8.436;2023-07-09T02:19:53;101159.31;;;17.01;100.00
61318;BME280;47201;40.428;-8.436;2023-07-09T02:21:54;101164.50;;;17.04;100.00
61318;BME280;47201;40.428;-8.436;2023-07-09T02:23:54;101163.00;;;16.92;100.00
61318;BME280;47201;40.428;-8.436;2023-07-09T02:25:56;101161.47;;;16.79;100.00
61318;BME280;47201;40.428;-8.436;2023-07-09T02:27:56;101162.63;;;16.65;100.00
61318;BME280;47201;40.428;-8.436;2023-07-09T02:29:58;101160.94;;;16.61;100.00
61318;BME280;47201;40.428;-8.436;2023-07-09T02:31:59;101162.75;;;16.58;100.00
61318;BME280;47201;40.428;-8.436;2023-07-09T02:34:01;101154.03;;;16.54;100.00
61318;BME280;47201;40.428;-8.436;2023-07-09T02:36:03;101162.75;;;16.58;100.00
61318;BME280;47201;40.428;-8.436;2023-07-09T02:38:04;101155.69;;;16.60;100.00
61318;BME280;47201;40.428;-8.436;2023-07-09T02:40:07;101161.88;;;16.59;100.00
61318;BME280;47201;40.428;-8.436;2023-07-09T02:42:13;101167.31;;;16.51;100.00
61318;BME280;47201;40.428;-8.436;2023-07-09T02:44:15;101166.63;;;16.41;100.00
61318;BME280;47201;40.428;-8.436;2023-07-09T02:46:16;101159.63;;;16.37;100.00
61318;BME280;47201;40.428;-8.436;2023-07-09T02:48:17;101164.06;;;16.35;100.00
61318;BME280;47201;40.428;-8.436;2023-07-09T02:50:18;101161.44;;;16.35;100.00
61318;BME280;47201;40.428;-8.436;2023-07-09T02:52:18;101167.66;;;16.31;100.00
61318;BME280;47201;40.428;-8.436;2023-07-09T02:54:19;101163.38;;;16.25;100.00
61318;BME280;47201;40.428;-8.436;2023-07-09T02:56:20;101167.81;;;16.23;100.00
61318;BME280;47201;40.428;-8.436;2023-07-09T02:58:21;101159.19;;;16.13;100.00
61318;BME280;47201;40.428;-8.436;2023-07-09T03:00:22;101164.72;;;15.99;100.00
61318;BME280;47201;40.428;-8.436;2023-07-09T03:02:22;101161.19;;;16.00;100.00
61318;BME280;47201;40.428;-8.436;2023-07-09T03:04:23;101159.28;;;16.07;100.00
61318;BME280;47201;40.428;-8.436;2023-07-09T03:06:24;101165.34;;;16.14;100.00
61318;BME280;47201;40.428;-8.436;2023-07-09T03:08:25;101162.72;;;16.12;100.00
61318;BME280;47201;40.428;-8.436;2023-07-09T03:10:28;101152.16;;;16.12;100.00
61318;BME280;47201;40.428;-8.436;2023-07-09T03:12:29;101151.44;;;16.02;100.00
61318;BME280;47201;40.428;-8.436;2023-07-09T03:14:29;101143.63;;;15.99;100.00
61318;BME280;47201;40.428;-8.436;2023-07-09T03:16:32;101151.31;;;16.12;100.00
61318;BME280;47201;40.428;-8.436;2023-07-09T03:18:34;101151.31;;;16.12;100.00
61318;BME280;47201;40.428;-8.436;2023-07-09T03:20:34;101154.88;;;16.09;100.00
61318;BME280;47201;40.428;-8.436;2023-07-09T03:22:35;101143.44;;;16.09;100.00
61318;BME280;47201;40.428;-8.436;2023-07-09T03:24:36;101146.13;;;16.06;100.00
61318;BME280;47201;40.428;-8.436;2023-07-09T03:26:36;101142.72;;;15.99;100.00
61318;BME280;47201;40.428;-8.436;2023-07-09T03:28:37;101145.34;;;16.00;100.00
61318;BME280;47201;40.428;-8.436;2023-07-09T03:30:45;101147.06;;;16.03;100.00
61318;BME280;47201;40.428;-8.436;2023-07-09T03:32:47;101145.63;;;15.85;100.00
61318;BME280;47201;40.428;-8.436;2023-07-09T03:34:48;101144.84;;;15.75;100.00
61318;BME280;47201;40.428;-8.436;2023-07-09T03:36:49;101139.75;;;15.63;100.00
61318;BME280;47201;40.428;-8.436;2023-07-09T03:38:49;101146.91;;;15.56;100.00
61318;BME280;47201;40.428;-8.436;2023-07-09T03:40:52;101141.66;;;15.54;100.00
61318;BME280;47201;40.428;-8.436;2023-07-09T03:42:53;101147.94;;;15.46;100.00
61318;BME280;47201;40.428;-8.436;2023-07-09T03:44:53;101150.66;;;15.38;100.00
61318;BME280;47201;40.428;-8.436;2023-07-09T03:46:54;101149.84;;;15.34;100.00
61318;BME280;47201;40.428;-8.436;2023-07-09T03:48:55;101149.94;;;15.30;100.00
61318;BME280;47201;40.428;-8.436;2023-07-09T03:50:55;101144.56;;;15.34;100.00
61318;BME280;47201;40.428;-8.436;2023-07-09T03:52:56;101144.34;;;15.51;100.00
61318;BME280;47201;40.428;-8.436;2023-07-09T03:54:57;101138.97;;;15.58;100.00
61318;BME280;47201;40.428;-8.436;2023-07-09T03:56:58;101136.34;;;15.58;100.00
61318;BME280;47201;40.428;-8.436;2023-07-09T03:58:58;101134.72;;;15.47;100.00
61318;BME280;47201;40.428;-8.436;2023-07-09T04:00:59;101138.31;;;15.42;100.00
61318;BME280;47201;40.428;-8.436;2023-07-09T04:03:00;101135.78;;;15.37;100.00
61318;BME280;47201;40.428;-8.436;2023-07-09T04:05:00;101134.13;;;15.30;100.00
61318;BME280;47201;40.428;-8.436;2023-07-09T04:07:01;101143.78;;;15.29;100.00
61318;BME280;47201;40.428;-8.436;2023-07-09T04:09:02;101134.19;;;15.23;100.00
61318;BME280;47201;40.428;-8.436;2023-07-09T04:11:02;101143.91;;;15.20;100.00
61318;BME280;47201;40.428;-8.436;2023-07-09T04:13:03;101143.97;;;15.17;100.00
61318;BME280;47201;40.428;-8.436;2023-07-09T04:15:04;101134.28;;;15.17;100.00
61318;BME280;47201;40.428;-8.436;2023-07-09T04:17:06;101137.75;;;15.22;100.00
61318;BME280;47201;40.428;-8.436;2023-07-09T04:19:06;101139.47;;;15.25;100.00
61318;BME280;47201;40.428;-8.436;2023-07-09T04:21:08;101140.28;;;15.27;100.00
61318;BME280;47201;40.428;-8.436;2023-07-09T04:23:08;101143.84;;;15.25;100.00
61318;BME280;47201;40.428;-8.436;2023-07-09T04:25:11;101147.44;;;15.19;100.00
61318;BME280;47201;40.428;-8.436;2023-07-09T04:27:11;101149.22;;;15.17;100.00
61318;BME280;47201;40.428;-8.436;2023-07-09T04:29:14;101151.78;;;15.23;100.00
61318;BME280;47201;40.428;-8.436;2023-07-09T04:31:14;101158.75;;;15.26;100.00
61318;BME280;47201;40.428;-8.436;2023-07-09T04:33:16;101159.69;;;15.20;100.00
61318;BME280;47201;40.428;-8.436;2023-07-09T04:35:18;101155.44;;;15.11;100.00
61318;BME280;47201;40.428;-8.436;2023-07-09T04:37:20;101161.69;;;15.02;100.00
61318;BME280;47201;40.428;-8.436;2023-07-09T04:39:20;101160.81;;;15.03;100.00
61318;BME280;47201;40.428;-8.436;2023-07-09T04:41:21;101157.28;;;15.03;100.00
61318;BME280;47201;40.428;-8.436;2023-07-09T04:43:22;101156.34;;;15.09;100.00
61318;BME280;47201;40.428;-8.436;2023-07-09T04:45:23;101159.06;;;15.02;100.00
61318;BME280;47201;40.428;-8.436;2023-07-09T04:47:23;101160.94;;;14.94;100.00
61318;BME280;47201;40.428;-8.436;2023-07-09T04:49:24;101161.88;;;14.88;100.00
61318;BME280;47201;40.428;-8.436;2023-07-09T04:51:24;101162.00;;;14.78;100.00
61318;BME280;47201;40.428;-8.436;2023-07-09T04:53:26;101163.81;;;14.71;100.00
61318;BME280;47201;40.428;-8.436;2023-07-09T04:55:26;101164.75;;;14.64;100.00
61318;BME280;47201;40.428;-8.436;2023-07-09T04:57:27;101163.06;;;14.56;100.00
61318;BME280;47201;40.428;-8.436;2023-07-09T04:59:28;101161.38;;;14.49;100.00
61318;BME280;47201;40.428;-8.436;2023-07-09T05:01:28;101173.78;;;14.38;100.00
61318;BME280;47201;40.428;-8.436;2023-07-09T05:03:29;101173.84;;;14.32;100.00
61318;BME280;47201;40.428;-8.436;2023-07-09T05:05:30;101168.63;;;14.27;100.00
61318;BME280;47201;40.428;-8.436;2023-07-09T05:07:30;101173.03;;;14.25;100.00
61318;BME280;47201;40.428;-8.436;2023-07-09T05:09:33;101173.06;;;14.23;100.00
61318;BME280;47201;40.428;-8.436;2023-07-09T05:11:35;101176.47;;;14.30;100.00
61318;BME280;47201;40.428;-8.436;2023-07-09T05:13:36;101179.00;;;14.41;100.00
61318;BME280;47201;40.428;-8.436;2023-07-09T05:15:40;101178.78;;;14.66;100.00
61318;BME280;47201;40.428;-8.436;2023-07-09T05:17:41;101175.16;;;14.74;100.00
61318;BME280;47201;40.428;-8.436;2023-07-09T05:19:42;101183.06;;;14.74;100.00
61318;BME280;47201;40.428;-8.436;2023-07-09T05:21:43;101178.72;;;14.72;100.00
61318;BME280;47201;40.428;-8.436;2023-07-09T05:23:43;101178.75;;;14.70;100.00
61318;BME280;47201;40.428;-8.436;2023-07-09T05:25:44;101177.91;;;14.65;100.00
61318;BME280;47201;40.428;-8.436;2023-07-09T05:27:45;101179.69;;;14.62;100.00
61318;BME280;47201;40.428;-8.436;2023-07-09T05:29:45;101177.00;;;14.65;100.00
61318;BME280;47201;40.428;-8.436;2023-07-09T05:31:46;101176.94;;;14.74;100.00
61318;BME280;47201;40.428;-8.436;2023-07-09T05:33:46;101178.78;;;14.69;100.00
61318;BME280;47201;40.428;-8.436;2023-07-09T05:35:47;101184.06;;;14.66;100.00
61318;BME280;47201;40.428;-8.436;2023-07-09T05:37:48;101183.16;;;14.65;100.00
61318;BME280;47201;40.428;-8.436;2023-07-09T05:39:49;101182.31;;;14.66;100.00
61318;BME280;47201;40.428;-8.436;2023-07-09T05:41:49;101180.56;;;14.62;100.00
61318;BME280;47201;40.428;-8.436;2023-07-09T05:43:51;101188.41;;;14.65;100.00
61318;BME280;47201;40.428;-8.436;2023-07-09T05:45:52;101186.72;;;14.59;100.00
61318;BME280;47201;40.428;-8.436;2023-07-09T05:47:53;101186.69;;;14.66;100.00
61318;BME280;47201;40.428;-8.436;2023-07-09T05:49:53;101185.78;;;14.64;100.00
61318;BME280;47201;40.428;-8.436;2023-07-09T05:51:54;101190.16;;;14.69;100.00
61318;BME280;47201;40.428;-8.436;2023-07-09T05:53:55;101195.31;;;14.79;100.00
61318;BME280;47201;40.428;-8.436;2023-07-09T05:55:56;101201.31;;;14.91;100.00
61318;BME280;47201;40.428;-8.436;2023-07-09T05:57:56;101203.00;;;14.97;100.00
61318;BME280;47201;40.428;-8.436;2023-07-09T05:59:57;101198.56;;;15.02;100.00
61318;BME280;47201;40.428;-8.436;2023-07-09T06:01:57;101202.97;;;15.00;100.00
61318;BME280;47201;40.428;-8.436;2023-07-09T06:04:00;101205.56;;;15.03;100.00
61318;BME280;47201;40.428;-8.436;2023-07-09T06:06:01;101207.97;;;15.22;100.00
61318;BME280;47201;40.428;-8.436;2023-07-09T06:08:03;101206.06;;;15.33;100.00
61318;BME280;47201;40.428;-8.436;2023-07-09T06:10:05;101208.63;;;15.39;100.00
61318;BME280;47201;40.428;-8.436;2023-07-09T06:12:07;101214.69;;;15.45;100.00
61318;BME280;47201;40.428;-8.436;2023-07-09T06:14:10;101207.56;;;15.53;100.00
61318;BME280;47201;40.428;-8.436;2023-07-09T06:16:11;101219.78;;;15.57;100.00
61318;BME280;47201;40.428;-8.436;2023-07-09T06:18:12;101217.06;;;15.62;100.00
61318;BME280;47201;40.428;-8.436;2023-07-09T06:20:12;101219.69;;;15.65;100.00
61318;BME280;47201;40.428;-8.436;2023-07-09T06:22:13;101220.44;;;15.71;100.00
61318;BME280;47201;40.428;-8.436;2023-07-09T06:24:14;101223.88;;;15.78;100.00
61318;BME280;47201;40.428;-8.436;2023-07-09T06:26:14;101229.97;;;15.83;100.00
61318;BME280;47201;40.428;-8.436;2023-07-09T06:28:19;101232.53;;;15.88;100.00
61318;BME280;47201;40.428;-8.436;2023-07-09T06:30:20;101230.78;;;15.89;100.00
61318;BME280;47201;40.428;-8.436;2023-07-09T06:32:21;101237.66;;;16.00;100.00
61318;BME280;47201;40.428;-8.436;2023-07-09T06:34:22;101235.78;;;16.06;100.00
61318;BME280;47201;40.428;-8.436;2023-07-09T06:36:22;101239.13;;;16.17;100.00
61318;BME280;47201;40.428;-8.436;2023-07-09T06:38:23;101238.19;;;16.21;100.00
61318;BME280;47201;40.428;-8.436;2023-07-09T06:40:24;101244.97;;;16.36;100.00
61318;BME280;47201;40.428;-8.436;2023-07-09T06:42:25;101240.31;;;16.50;100.00
61318;BME280;47201;40.428;-8.436;2023-07-09T06:44:40;101245.31;;;16.68;100.00
61318;BME280;47201;40.428;-8.436;2023-07-09T06:46:41;101245.00;;;16.83;100.00
61318;BME280;47201;40.428;-8.436;2023-07-09T06:48:42;101251.00;;;16.91;100.00
61318;BME280;47201;40.428;-8.436;2023-07-09T06:50:43;101248.31;;;16.98;100.00
61318;BME280;47201;40.428;-8.436;2023-07-09T06:52:43;101253.50;;;17.01;100.00
61318;BME280;47201;40.428;-8.436;2023-07-09T06:54:44;101248.19;;;17.04;100.00
61318;BME280;47201;40.428;-8.436;2023-07-09T06:56:45;101254.28;;;17.06;100.00
61318;BME280;47201;40.428;-8.436;2023-07-09T06:58:46;101253.97;;;17.23;100.00
61318;BME280;47201;40.428;-8.436;2023-07-09T07:00:48;101252.00;;;17.33;100.00
61318;BME280;47201;40.428;-8.436;2023-07-09T07:02:49;101257.84;;;17.47;100.00
61318;BME280;47201;40.428;-8.436;2023-07-09T07:04:50;101256.63;;;17.62;100.00
61318;BME280;47201;40.428;-8.436;2023-07-09T07:06:50;101257.09;;;17.81;100.00
61318;BME280;47201;40.428;-8.436;2023-07-09T07:08:51;101258.47;;;17.99;100.00
61318;BME280;47201;40.428;-8.436;2023-07-09T07:10:57;101257.13;;;18.19;100.00
61318;BME280;47201;40.428;-8.436;2023-07-09T07:13:04;101264.69;;;18.33;100.00
61318;BME280;47201;40.428;-8.436;2023-07-09T07:15:05;101255.19;;;18.60;100.00
61318;BME280;47201;40.428;-8.436;2023-07-09T07:17:06;101257.97;;;18.89;100.00
61318;BME280;47201;40.428;-8.436;2023-07-09T07:19:07;101257.31;;;19.13;100.00
61318;BME280;47201;40.428;-8.436;2023-07-09T07:21:07;101265.50;;;19.36;100.00
61318;BME280;47201;40.428;-8.436;2023-07-09T07:23:11;101269.31;;;19.57;100.00
61318;BME280;47201;40.428;-8.436;2023-07-09T07:25:12;101269.66;;;19.74;100.00
61318;BME280;47201;40.428;-8.436;2023-07-09T07:27:13;101280.28;;;20.03;100.00
61318;BME280;47201;40.428;-8.436;2023-07-09T07:29:13;101277.09;;;20.20;100.00
61318;BME280;47201;40.428;-8.436;2023-07-09T07:31:14;101274.59;;;20.42;99.62
61318;BME280;47201;40.428;-8.436;2023-07-09T07:33:14;101280.50;;;20.77;97.63
61318;BME280;47201;40.428;-8.436;2023-07-09T07:35:18;101278.84;;;21.23;93.46
61318;BME280;47201;40.428;-8.436;2023-07-09T07:37:19;101289.44;;;21.49;89.92
61318;BME280;47201;40.428;-8.436;2023-07-09T07:39:21;101288.53;;;21.74;88.16
61318;BME280;47201;40.428;-8.436;2023-07-09T07:41:21;101285.34;;;22.30;86.90
61318;BME280;47201;40.428;-8.436;2023-07-09T07:43:22;101285.38;;;23.13;82.23
61318;BME280;47201;40.428;-8.436;2023-07-09T07:45:23;101289.03;;;23.88;77.01
61318;BME280;47201;40.428;-8.436;2023-07-09T07:47:23;101292.47;;;24.99;75.40
61318;BME280;47201;40.428;-8.436;2023-07-09T07:49:24;101293.47;;;26.11;71.25
61318;BME280;47201;40.428;-8.436;2023-07-09T07:51:24;101305.78;;;27.34;71.77
61318;BME280;47201;40.428;-8.436;2023-07-09T07:53:25;101305.78;;;28.73;70.39
61318;BME280;47201;40.428;-8.436;2023-07-09T07:55:26;101318.56;;;29.59;73.65
61318;BME280;47201;40.428;-8.436;2023-07-09T07:57:26;101320.41;;;30.20;77.33
61318;BME280;47201;40.428;-8.436;2023-07-09T07:59:27;101327.34;;;31.30;79.31
61318;BME280;47201;40.428;-8.436;2023-07-09T08:01:28;101328.94;;;32.10;80.11
61318;BME280;47201;40.428;-8.436;2023-07-09T08:03:28;101331.19;;;33.22;82.04
61318;BME280;47201;40.428;-8.436;2023-07-09T08:05:29;101324.59;;;34.26;82.69
61318;BME280;47201;40.428;-8.436;2023-07-09T08:07:30;101328.13;;;34.95;83.32
61318;BME280;47201;40.428;-8.436;2023-07-09T08:09:31;101331.47;;;34.60;83.97
61318;BME280;47201;40.428;-8.436;2023-07-09T08:11:31;101325.44;;;35.33;84.33
61318;BME280;47201;40.428;-8.436;2023-07-09T08:13:37;101327.88;;;35.82;83.06
61318;BME280;47201;40.428;-8.436;2023-07-09T08:15:41;101325.44;;;36.43;83.76
61318;BME280;47201;40.428;-8.436;2023-07-09T08:17:42;101327.28;;;36.87;83.81
61318;BME280;47201;40.428;-8.436;2023-07-09T08:19:56;101325.00;;;36.74;82.97
61318;BME280;47201;40.428;-8.436;2023-07-09T08:21:57;101323.72;;;36.42;84.18
61318;BME280;47201;40.428;-8.436;2023-07-09T08:23:58;101329.91;;;36.71;84.45
61318;BME280;47201;40.428;-8.436;2023-07-09T08:26:00;101330.19;;;36.59;83.99
61318;BME280;47201;40.428;-8.436;2023-07-09T08:28:03;101331.88;;;36.87;83.04
61318;BME280;47201;40.428;-8.436;2023-07-09T08:30:04;101334.06;;;37.01;81.95
61318;BME280;47201;40.428;-8.436;2023-07-09T08:32:05;101328.94;;;37.75;82.17
61318;BME280;47201;40.428;-8.436;2023-07-09T08:34:06;101322.53;;;37.50;81.95
61318;BME280;47201;40.428;-8.436;2023-07-09T08:36:08;101321.16;;;38.22;81.71
61318;BME280;47201;40.428;-8.436;2023-07-09T08:38:11;101328.28;;;37.98;80.75
61318;BME280;47201;40.428;-8.436;2023-07-09T08:40:13;101326.09;;;38.10;80.69
61318;BME280;47201;40.428;-8.436;2023-07-09T08:42:17;101325.53;;;37.82;80.37
61318;BME280;47201;40.428;-8.436;2023-07-09T08:44:37;101322.47;;;37.85;80.80
61318;BME280;47201;40.428;-8.436;2023-07-09T08:47:06;101321.16;;;37.46;81.59
61318;BME280;47201;40.428;-8.436;2023-07-09T08:49:21;101316.09;;;36.90;81.98
61318;BME280;47201;40.428;-8.436;2023-07-09T08:51:26;101310.25;;;36.85;83.13
61318;BME280;47201;40.428;-8.436;2023-07-09T08:53:34;101317.97;;;37.59;81.96
61318;BME280;47201;40.428;-8.436;2023-07-09T08:55:36;101316.38;;;38.16;81.60
61318;BME280;47201;40.428;-8.436;2023-07-09T08:57:45;101314.00;;;38.46;80.88
61318;BME280;47201;40.428;-8.436;2023-07-09T08:59:50;101320.81;;;38.58;81.39
61318;BME280;47201;40.428;-8.436;2023-07-09T09:01:54;101312.56;;;38.99;80.68
61318;BME280;47201;40.428;-8.436;2023-07-09T09:04:02;101315.28;;;39.08;79.75
61318;BME280;47201;40.428;-8.436;2023-07-09T09:10:41;101312.63;;;38.17;80.69
61318;BME280;47201;40.428;-8.436;2023-07-09T09:12:56;101313.19;;;37.53;79.92
61318;BME280;47201;40.428;-8.436;2023-07-09T09:15:03;101309.66;;;36.11;81.45
61318;BME280;47201;40.428;-8.436;2023-07-09T09:17:14;101317.56;;;37.37;79.99
61318;BME280;47201;40.428;-8.436;2023-07-09T09:19:31;101317.94;;;37.51;80.29
61318;BME280;47201;40.428;-8.436;2023-07-09T09:21:42;101311.97;;;38.39;79.80
61318;BME280;47201;40.428;-8.436;2023-07-09T09:23:48;101312.50;;;39.16;79.64
61318;BME280;47201;40.428;-8.436;2023-07-09T09:25:52;101318.75;;;39.41;78.66
61318;BME280;47201;40.428;-8.436;2023-07-09T09:27:54;101319.22;;;39.53;79.04
61318;BME280;47201;40.428;-8.436;2023-07-09T09:29:55;101307.69;;;38.53;79.45
61318;BME280;47201;40.428;-8.436;2023-07-09T09:31:57;101309.59;;;37.18;80.49
61318;BME280;47201;40.428;-8.436;2023-07-09T09:33:59;101308.22;;;36.61;80.77
61318;BME280;47201;40.428;-8.436;2023-07-09T09:36:03;101306.47;;;36.15;81.77
61318;BME280;47201;40.428;-8.436;2023-07-09T09:38:17;101303.16;;;36.66;80.57
61318;BME280;47201;40.428;-8.436;2023-07-09T09:40:19;101302.31;;;36.92;80.80
61318;BME280;47201;40.428;-8.436;2023-07-09T09:42:24;101301.66;;;36.09;80.92
61318;BME280;47201;40.428;-8.436;2023-07-09T09:44:28;101314.91;;;36.30;81.13
61318;BME280;47201;40.428;-8.436;2023-07-09T09:46:32;101309.13;;;36.07;81.12
61318;BME280;47201;40.428;-8.436;2023-07-09T09:48:32;101311.66;;;35.45;81.46
61318;BME280;47201;40.428;-8.436;2023-07-09T09:50:34;101317.72;;;37.01;80.57
61318;BME280;47201;40.428;-8.436;2023-07-09T09:52:34;101313.31;;;36.82;80.83
61318;BME280;47201;40.428;-8.436;2023-07-09T09:54:40;101304.53;;;35.62;81.68
61318;BME280;47201;40.428;-8.436;2023-07-09T09:56:42;101302.81;;;35.88;81.62
61318;BME280;47201;40.428;-8.436;2023-07-09T09:58:43;101307.47;;;36.32;80.97
61318;BME280;47201;40.428;-8.436;2023-07-09T10:00:52;101309.66;;;37.34;80.26
61318;BME280;47201;40.428;-8.436;2023-07-09T10:03:03;101307.22;;;37.66;79.94
61318;BME280;47201;40.428;-8.436;2023-07-09T10:05:14;101307.69;;;37.44;80.91
61318;BME280;47201;40.428;-8.436;2023-07-09T10:07:23;101308.63;;;36.92;80.99
61318;BME280;47201;40.428;-8.436;2023-07-09T10:09:51;101302.88;;;36.33;81.65
61318;BME280;47201;40.428;-8.436;2023-07-09T10:14:28;101291.56;;;35.55;82.21
61318;BME280;47201;40.428;-8.436;2023-07-09T10:16:38;101293.84;;;36.50;81.54
61318;BME280;47201;40.428;-8.436;2023-07-09T10:19:16;101289.44;;;37.45;80.91
61318;BME280;47201;40.428;-8.436;2023-07-09T10:21:28;101285.50;;;35.62;82.31
61318;BME280;47201;40.428;-8.436;2023-07-09T10:23:46;101287.78;;;35.84;81.93
61318;BME280;47201;40.428;-8.436;2023-07-09T10:25:51;101288.69;;;35.75;82.46
61318;BME280;47201;40.428;-8.436;2023-07-09T10:30:49;101293.09;;;36.22;81.22
61318;BME280;47201;40.428;-8.436;2023-07-09T10:33:08;101287.56;;;37.03;81.02
61318;BME280;47201;40.428;-8.436;2023-07-09T10:35:23;101282.06;;;36.94;80.65
61318;BME280;47201;40.428;-8.436;2023-07-09T10:39:49;101280.63;;;35.37;82.45
61318;BME280;47201;40.428;-8.436;2023-07-09T10:41:56;101282.16;;;36.14;81.74
61318;BME280;47201;40.428;-8.436;2023-07-09T10:44:16;101274.94;;;35.31;82.81
61318;BME280;47201;40.428;-8.436;2023-07-09T10:46:25;101281.25;;;37.02;81.19
61318;BME280;47201;40.428;-8.436;2023-07-09T10:48:34;101290.59;;;36.73;81.14
61318;BME280;47201;40.428;-8.436;2023-07-09T10:50:46;101284.22;;;37.76;80.49